Impacts TAF Board
For situational awareness. Not to be used for flight planning purposes.
IDs:

KMIA - Miami Intl, FL, US

Issued at 0529 UTC 19 Aug 2019
Updated at 0619 UTC 19 Aug 2019
Potential Impact None Slight Moderate High
Time0553Z 19/07Z 19/08Z 19/09Z 19/10Z 19/11Z 19/12Z 19/13Z 19/14Z 19/15Z 19/16Z 19/17Z 19/18Z 19/19Z>>
Type OBS PRVL PRVL PRVL PRVL PRVL PRVL PRVL PRVL PRVL PRVL PRVL PRVL PRVL
VIS 10 >6 >6 >6 >6 >6 >6 >6 >6 >6 >6 >6 >6 >6
CIG -- -- -- -- -- -- -- -- -- -- -- -- -- --
Cover FEW FEW FEW FEW FEW FEW FEW FEW SCT SCT SCT SCT SCT SCT
FltCat VFR VFR VFR VFR VFR VFR VFR VFR VFR VFR VFR VFR VFR VFR
WX -- -- -- -- -- -- -- -- VCSH VCSH VCSH VCSH VCSH VCSH
WDir 90 80 80 80 80 80 80 80 80 80 80 80 80 80
WSpd 7 5 5 5 5 5 5 5 11 11 11 11 11 11
WGst -- -- -- -- -- -- -- -- -- -- -- -- -- --
Raw TAF
KMIA 190529Z 1906/2012 08005KT P6SM FEW250
  FM191400 08011KT P6SM VCSH SCT030 SCT080 SCT250
  FM192300 08008KT P6SM FEW030 SCT050 SCT100
  FM200200 VRB04KT P6SM SCT030


Raw METAR
KMIA 190553Z 09007KT 10SM FEW027 29/23 A3005 RMK AO2 SLP176 T02940233 10311 20289 58009
KMIA 190453Z 08006KT 10SM FEW025 29/23 A3007 RMK AO2 SLP184 T02940228 403390267
KMIA 190353Z 08010KT 10SM FEW025 30/23 A3008 RMK AO2 SLP186 T03000228

METAR Board
Radar Display
Forecast Discussion
For situational awareness. Not to be used for flight planning purposes.